Terminal Aerodrome Forecast
Issued by NWS Boston, MA

Home | Current Version | Previous Version | Text Only | Print | Product List | Glossary On
Versions: 1 2 3 4 5 6 7 8 9 10 11 12 13 14 15
000
FTUS41 KBOX 020520
TAFORH
TAF
KORH 020520Z 0206/0306 VRB03KT 1/4SM FG OVC002
     FM020900 03004KT 1/2SM FG VCSH OVC002
     FM021500 VRB03KT 3SM BR VCSH OVC003
     FM022200 00000KT 1 1/2SM BR VCSH OVC003
     FM030400 00000KT P6SM VCSH OVC008=

USA.gov is the U.S. government's official web portal to all federal, state and local government web resources and services.